Time;durP1;ratioP1;P1;durP2;ratioP2;P2;SDS_P1;SDS_P2;PMS_P1;PMS_P2;Temp;Humidity;BMP_temperature;BMP_pressure;BME280_temperature;BME280_humidity;BME280_pressure;Samples;Min_cycle;Max_cycle;Signal;HPM_P1;HPM_P2
2022/03/25 00:02:06;;;;;;;16.20;6.43;;;;;;;;;;5042649;28;20021;-82
2022/03/25 00:04:32;;;;;;;11.90;5.03;;;;;;;;;;5043784;28;20033;-83
2022/03/25 00:06:58;;;;;;;11.13;6.60;;;;;;;;;;5048215;28;20021;-83
2022/03/25 00:09:24;;;;;;;15.35;6.05;;;;;;;;;;5045625;28;20099;-83
2022/03/25 00:11:50;;;;;;;21.92;6.90;;;;;;;;;;5046662;28;20032;-84
2022/03/25 00:14:16;;;;;;;37.38;7.68;;;;;;;;;;5051740;28;20044;-82
2022/03/25 00:16:43;;;;;;;22.00;8.23;;;;;;;;;;5044115;28;20040;-84
2022/03/25 00:19:09;;;;;;;13.82;5.25;;;;;;;;;;5048268;28;20102;-82
2022/03/25 00:21:36;;;;;;;15.05;5.78;;;;;;;;;;5044001;28;20060;-83
2022/03/25 00:24:02;;;;;;;19.52;7.93;;;;;;;;;;5037500;28;20040;-83
2022/03/25 00:26:28;;;;;;;18.48;6.70;;;;;;;;;;5047775;28;20022;-83
2022/03/25 00:28:54;;;;;;;14.63;5.60;;;;;;;;;;5047178;28;20158;-83
2022/03/25 00:31:20;;;;;;;16.15;7.10;;;;;;;;;;5054253;28;20051;-84
2022/03/25 00:33:49;;;;;;;13.88;6.72;;;;;;;;;;5044481;28;20052;-83
2022/03/25 00:36:16;;;;;;;16.98;8.27;;;;;;;;;;5047042;28;20048;-83
2022/03/25 00:38:42;;;;;;;16.48;6.63;;;;;;;;;;5051844;28;20025;-83
2022/03/25 00:41:08;;;;;;;15.65;7.13;;;;;;;;;;5047819;28;20096;-83
2022/03/25 00:43:34;;;;;;;13.35;6.45;;;;;;;;;;5050187;28;20025;-83
2022/03/25 00:46:01;;;;;;;12.40;5.28;;;;;;;;;;5044441;28;20105;-83
2022/03/25 00:48:27;;;;;;;9.55;4.38;;;;;;;;;;5046654;28;20079;-82
2022/03/25 00:50:53;;;;;;;14.02;5.40;;;;;;;;;;5043526;28;20049;-84
2022/03/25 00:53:20;;;;;;;11.82;5.63;;;;;;;;;;5045417;28;20101;-82
2022/03/25 00:55:45;;;;;;;15.27;5.90;;;;;;;;;;5047478;28;20037;-82
2022/03/25 00:58:15;;;;;;;15.40;6.35;;;;;;;;;;5043460;28;20074;-82
2022/03/25 01:00:41;;;;;;;14.15;6.00;;;;;;;;;;5043142;28;20400;-82
2022/03/25 01:03:08;;;;;;;16.73;6.22;;;;;;;;;;5042794;28;20033;-84
2022/03/25 01:05:34;;;;;;;13.38;5.55;;;;;;;;;;5047646;28;20505;-83
2022/03/25 01:08:00;;;;;;;15.65;6.13;;;;;;;;;;5038182;28;20029;-82
2022/03/25 01:10:26;;;;;;;12.02;5.32;;;;;;;;;;5049734;28;20598;-83
2022/03/25 01:12:52;;;;;;;11.55;5.57;;;;;;;;;;5046679;28;20033;-82
2022/03/25 01:15:18;;;;;;;13.48;7.75;;;;;;;;;;5038769;28;20152;-82
2022/03/25 01:17:44;;;;;;;11.93;4.70;;;;;;;;;;5044570;28;20040;-82
2022/03/25 01:20:10;;;;;;;15.10;5.60;;;;;;;;;;5041372;28;20033;-82
2022/03/25 01:22:36;;;;;;;14.73;5.30;;;;;;;;;;5040017;28;20029;-81
2022/03/25 01:25:03;;;;;;;14.95;6.15;;;;;;;;;;5047258;28;20030;-82
2022/03/25 01:27:29;;;;;;;9.70;5.30;;;;;;;;;;5041511;28;20025;-83
2022/03/25 01:29:55;;;;;;;15.63;6.97;;;;;;;;;;5039252;28;20053;-82
2022/03/25 01:32:21;;;;;;;18.13;5.78;;;;;;;;;;5042793;28;20025;-82
2022/03/25 01:34:47;;;;;;;17.25;6.15;;;;;;;;;;5042489;28;20039;-81
2022/03/25 01:37:13;;;;;;;14.40;4.97;;;;;;;;;;5046267;28;20462;-82
2022/03/25 01:39:39;;;;;;;15.27;6.43;;;;;;;;;;5044898;28;20033;-82
2022/03/25 01:42:05;;;;;;;13.70;5.88;;;;;;;;;;5042840;28;20029;-83
2022/03/25 01:44:31;;;;;;;8.98;5.35;;;;;;;;;;5041050;28;20021;-82
2022/03/25 01:46:58;;;;;;;13.90;6.45;;;;;;;;;;5044558;28;20048;-82
2022/03/25 01:49:24;;;;;;;16.08;5.55;;;;;;;;;;5049159;28;20043;-81
2022/03/25 01:51:51;;;;;;;10.88;5.38;;;;;;;;;;5048092;28;20382;-81
2022/03/25 01:54:27;;;;;;;14.50;5.85;;;;;;;;;;5049077;28;20029;-82
2022/03/25 01:57:01;;;;;;;15.68;6.47;;;;;;;;;;5047741;28;20453;-81
2022/03/25 01:59:27;;;;;;;13.25;6.13;;;;;;;;;;5037857;28;20021;-81
2022/03/25 02:01:54;;;;;;;14.93;5.72;;;;;;;;;;5036243;28;20037;-81
2022/03/25 02:04:20;;;;;;;17.10;5.85;;;;;;;;;;5048524;28;20101;-82
2022/03/25 02:06:47;;;;;;;13.50;5.57;;;;;;;;;;5044770;28;20032;-81
2022/03/25 02:09:13;;;;;;;19.13;7.22;;;;;;;;;;5046244;28;20045;-81
2022/03/25 02:11:40;;;;;;;13.63;6.03;;;;;;;;;;5040202;28;20033;-81
2022/03/25 02:14:06;;;;;;;11.18;5.70;;;;;;;;;;5042691;28;20049;-81
2022/03/25 02:16:35;;;;;;;11.25;5.70;;;;;;;;;;5045525;28;20037;-82
2022/03/25 02:19:02;;;;;;;15.50;6.05;;;;;;;;;;5042841;28;20096;-82
2022/03/25 02:21:29;;;;;;;16.27;7.00;;;;;;;;;;5042850;28;20138;-81
2022/03/25 02:23:55;;;;;;;17.92;6.65;;;;;;;;;;5047300;28;20036;-81
2022/03/25 02:26:22;;;;;;;16.05;6.18;;;;;;;;;;5043571;28;20093;-81
2022/03/25 02:28:48;;;;;;;14.07;5.90;;;;;;;;;;5043428;28;20029;-80
2022/03/25 02:31:16;;;;;;;17.33;6.45;;;;;;;;;;5047156;28;20025;-82
2022/03/25 02:33:42;;;;;;;13.18;5.75;;;;;;;;;;5043640;28;20119;-80
2022/03/25 02:36:08;;;;;;;13.73;6.30;;;;;;;;;;5044172;28;20033;-83
2022/03/25 02:38:35;;;;;;;11.32;4.63;;;;;;;;;;5048182;28;20028;-80
2022/03/25 02:41:01;;;;;;;12.65;6.07;;;;;;;;;;5052504;28;20020;-83
2022/03/25 02:43:27;;;;;;;9.63;5.05;;;;;;;;;;5061100;28;20036;-84
2022/03/25 02:45:53;;;;;;;9.00;4.70;;;;;;;;;;5055309;28;20025;-84
2022/03/25 02:48:19;;;;;;;14.10;5.18;;;;;;;;;;5053728;28;20026;-84
2022/03/25 02:50:46;;;;;;;14.57;6.28;;;;;;;;;;5058541;28;20087;-83
2022/03/25 02:53:13;;;;;;;14.25;7.07;;;;;;;;;;5053914;28;20702;-84
2022/03/25 02:55:39;;;;;;;16.10;5.13;;;;;;;;;;5051895;28;20028;-84
2022/03/25 02:58:06;;;;;;;19.85;6.03;;;;;;;;;;5046812;28;20064;-84
2022/03/25 03:00:32;;;;;;;21.63;6.38;;;;;;;;;;5043354;28;20092;-83
2022/03/25 03:03:01;;;;;;;12.95;6.45;;;;;;;;;;5050732;28;20072;-83
2022/03/25 03:05:28;;;;;;;13.80;5.45;;;;;;;;;;5045555;28;20037;-83
2022/03/25 03:07:55;;;;;;;11.20;5.35;;;;;;;;;;5039485;28;20148;-83
2022/03/25 03:10:21;;;;;;;14.30;5.55;;;;;;;;;;5044695;28;20033;-83
2022/03/25 03:12:47;;;;;;;14.20;6.47;;;;;;;;;;5044736;28;20029;-83
2022/03/25 03:15:15;;;;;;;14.88;6.80;;;;;;;;;;5041814;28;20087;-84
2022/03/25 03:17:41;;;;;;;16.80;5.45;;;;;;;;;;5047466;28;20029;-83
2022/03/25 03:20:08;;;;;;;15.05;6.13;;;;;;;;;;5045275;28;20036;-82
2022/03/25 03:22:34;;;;;;;14.88;5.75;;;;;;;;;;5047616;28;20041;-83
2022/03/25 03:25:01;;;;;;;16.00;6.53;;;;;;;;;;5043489;28;20037;-82
2022/03/25 03:27:27;;;;;;;12.05;5.18;;;;;;;;;;5050615;28;20056;-84
2022/03/25 03:29:53;;;;;;;13.10;5.10;;;;;;;;;;5045187;28;20049;-83
2022/03/25 03:32:19;;;;;;;13.75;5.95;;;;;;;;;;5045065;28;20045;-83
2022/03/25 03:34:45;;;;;;;21.15;7.50;;;;;;;;;;5039976;28;20048;-84
2022/03/25 03:37:11;;;;;;;19.48;7.38;;;;;;;;;;5046080;28;20021;-82
2022/03/25 03:39:37;;;;;;;19.23;7.63;;;;;;;;;;5040338;28;20029;-82
2022/03/25 03:42:03;;;;;;;15.68;6.10;;;;;;;;;;5042057;28;20067;-84
2022/03/25 03:44:29;;;;;;;15.73;5.55;;;;;;;;;;5043079;28;20081;-82
2022/03/25 03:46:56;;;;;;;16.58;6.40;;;;;;;;;;5047888;28;20070;-82
2022/03/25 03:49:22;;;;;;;10.07;5.82;;;;;;;;;;5048972;28;20060;-83
2022/03/25 03:51:48;;;;;;;13.60;6.57;;;;;;;;;;5048700;28;20512;-82
2022/03/25 03:54:14;;;;;;;19.10;6.82;;;;;;;;;;5042640;28;20517;-83
2022/03/25 03:56:40;;;;;;;13.90;5.18;;;;;;;;;;5052640;28;20051;-84
2022/03/25 03:59:07;;;;;;;13.52;6.18;;;;;;;;;;5040400;28;20034;-83
2022/03/25 04:01:33;;;;;;;15.63;6.13;;;;;;;;;;5049286;28;20110;-83
2022/03/25 04:03:59;;;;;;;9.40;4.40;;;;;;;;;;5050539;28;20460;-82
2022/03/25 04:06:25;;;;;;;12.98;5.43;;;;;;;;;;5046986;28;20025;-84
2022/03/25 04:08:51;;;;;;;16.95;5.85;;;;;;;;;;5046698;28;20139;-82
2022/03/25 04:11:17;;;;;;;11.70;5.13;;;;;;;;;;5053838;28;20029;-83
2022/03/25 04:13:44;;;;;;;11.70;5.95;;;;;;;;;;5051742;28;20021;-83
2022/03/25 04:16:10;;;;;;;10.95;5.30;;;;;;;;;;5045074;28;20040;-82
2022/03/25 04:18:37;;;;;;;17.33;5.55;;;;;;;;;;5052641;28;20037;-82
2022/03/25 04:21:03;;;;;;;21.45;6.35;;;;;;;;;;5051550;28;20040;-82
2022/03/25 04:23:29;;;;;;;14.30;4.72;;;;;;;;;;5051997;28;20017;-82
2022/03/25 04:25:55;;;;;;;15.60;6.18;;;;;;;;;;5056832;28;20716;-83
2022/03/25 04:28:21;;;;;;;12.50;5.07;;;;;;;;;;5050887;28;20037;-83
2022/03/25 04:30:47;;;;;;;14.40;6.97;;;;;;;;;;5047131;28;20037;-82
2022/03/25 04:33:13;;;;;;;11.50;4.45;;;;;;;;;;5052216;28;20032;-83
2022/03/25 04:35:39;;;;;;;18.55;6.00;;;;;;;;;;5051273;28;20036;-83
2022/03/25 04:38:05;;;;;;;12.77;5.50;;;;;;;;;;5048360;28;20025;-83
2022/03/25 04:40:32;;;;;;;14.18;6.65;;;;;;;;;;5047203;28;20376;-82
2022/03/25 04:42:59;;;;;;;14.73;6.00;;;;;;;;;;5044453;28;20025;-82
2022/03/25 04:45:25;;;;;;;12.02;5.60;;;;;;;;;;5047188;28;20029;-82
2022/03/25 04:47:51;;;;;;;17.05;6.93;;;;;;;;;;5043371;28;20108;-82
2022/03/25 04:50:17;;;;;;;12.88;5.05;;;;;;;;;;5050027;28;20052;-83
2022/03/25 04:52:43;;;;;;;13.07;5.43;;;;;;;;;;5045429;28;20064;-82
2022/03/25 04:55:11;;;;;;;16.27;7.00;;;;;;;;;;5050229;28;20049;-82
2022/03/25 04:57:37;;;;;;;11.00;4.90;;;;;;;;;;5057555;28;20032;-84
2022/03/25 05:00:04;;;;;;;12.60;4.45;;;;;;;;;;5044962;28;20041;-83
2022/03/25 05:02:30;;;;;;;17.42;5.75;;;;;;;;;;5052846;28;20036;-84
2022/03/25 05:04:56;;;;;;;19.60;7.93;;;;;;;;;;5045961;28;20052;-83
2022/03/25 05:07:22;;;;;;;13.05;5.55;;;;;;;;;;5057792;28;20029;-83
2022/03/25 05:09:49;;;;;;;12.02;5.45;;;;;;;;;;5042318;28;20109;-86
2022/03/25 05:12:15;;;;;;;9.38;4.90;;;;;;;;;;5047402;28;20026;-83
2022/03/25 05:14:41;;;;;;;10.95;4.97;;;;;;;;;;5048631;28;21372;-83
2022/03/25 05:17:07;;;;;;;15.80;5.97;;;;;;;;;;5032248;28;20010;-84
2022/03/25 05:19:33;;;;;;;14.25;6.95;;;;;;;;;;5047759;28;20451;-81
2022/03/25 05:21:59;;;;;;;10.80;4.32;;;;;;;;;;5049240;28;20021;-83
2022/03/25 05:24:26;;;;;;;16.75;6.32;;;;;;;;;;5052086;28;20540;-84
2022/03/25 05:26:52;;;;;;;11.77;5.53;;;;;;;;;;5044398;28;20114;-83
2022/03/25 05:29:18;;;;;;;11.65;5.00;;;;;;;;;;5046819;28;20045;-81
2022/03/25 05:31:45;;;;;;;15.30;6.20;;;;;;;;;;5043961;28;20705;-82
2022/03/25 05:34:11;;;;;;;7.85;5.07;;;;;;;;;;5040692;28;20039;-82
2022/03/25 05:36:36;;;;;;;11.05;4.75;;;;;;;;;;5054207;28;20057;-81
2022/03/25 05:39:03;;;;;;;17.23;6.05;;;;;;;;;;5064514;28;20421;-80
2022/03/25 05:41:29;;;;;;;13.65;6.57;;;;;;;;;;5061641;28;20043;-79
2022/03/25 05:43:56;;;;;;;17.38;6.53;;;;;;;;;;5053893;28;20033;-80
2022/03/25 05:46:22;;;;;;;12.88;6.35;;;;;;;;;;5049450;28;20052;-79
2022/03/25 05:48:48;;;;;;;10.30;5.95;;;;;;;;;;5053577;28;20028;-80
2022/03/25 05:51:14;;;;;;;10.90;4.90;;;;;;;;;;5050803;28;20080;-79
2022/03/25 05:53:41;;;;;;;18.45;6.88;;;;;;;;;;5049783;28;20021;-80
2022/03/25 05:56:07;;;;;;;12.50;5.93;;;;;;;;;;5055972;28;20064;-79
2022/03/25 05:58:34;;;;;;;14.43;6.18;;;;;;;;;;5049374;28;20100;-79
2022/03/25 06:01:01;;;;;;;18.70;7.18;;;;;;;;;;5053407;28;20025;-78
2022/03/25 06:03:27;;;;;;;17.27;6.38;;;;;;;;;;5050698;28;20093;-79
2022/03/25 06:05:53;;;;;;;13.77;6.10;;;;;;;;;;5047388;28;20026;-78
2022/03/25 06:08:19;;;;;;;22.27;7.93;;;;;;;;;;5058388;28;20033;-79
2022/03/25 06:10:45;;;;;;;13.73;5.85;;;;;;;;;;5043988;28;20034;-79
2022/03/25 06:13:11;;;;;;;15.40;6.97;;;;;;;;;;5046670;28;20036;-79
2022/03/25 06:15:37;;;;;;;18.50;5.95;;;;;;;;;;5049161;28;20032;-78
2022/03/25 06:18:03;;;;;;;13.32;6.47;;;;;;;;;;5048989;28;20029;-78
2022/03/25 06:20:30;;;;;;;19.77;6.47;;;;;;;;;;5044266;28;20025;-79
2022/03/25 06:22:56;;;;;;;16.30;7.43;;;;;;;;;;5053777;28;20180;-78
2022/03/25 06:25:22;;;;;;;12.13;5.53;;;;;;;;;;5055181;28;20055;-79
2022/03/25 06:27:52;;;;;;;19.55;7.82;;;;;;;;;;5057169;28;20041;-79
2022/03/25 06:30:19;;;;;;;12.32;6.10;;;;;;;;;;5055210;28;20045;-79
2022/03/25 06:32:45;;;;;;;23.17;7.97;;;;;;;;;;5057835;28;20021;-78
2022/03/25 06:35:11;;;;;;;17.27;6.18;;;;;;;;;;5053893;28;20398;-79
2022/03/25 06:37:37;;;;;;;15.77;7.70;;;;;;;;;;5058169;28;20097;-78
2022/03/25 06:40:07;;;;;;;15.40;7.57;;;;;;;;;;5052552;28;20041;-79
2022/03/25 06:42:33;;;;;;;16.15;7.10;;;;;;;;;;5056612;28;20021;-78
2022/03/25 06:44:59;;;;;;;20.23;7.85;;;;;;;;;;5048666;28;20043;-79
2022/03/25 06:47:25;;;;;;;15.43;7.05;;;;;;;;;;5058087;28;20056;-79
2022/03/25 06:49:51;;;;;;;22.52;7.85;;;;;;;;;;5058079;28;20041;-79
2022/03/25 06:52:18;;;;;;;16.10;8.27;;;;;;;;;;5048950;28;20041;-79
2022/03/25 06:54:44;;;;;;;19.90;7.65;;;;;;;;;;5055056;28;20417;-79
2022/03/25 06:57:11;;;;;;;13.70;5.30;;;;;;;;;;5062496;28;20021;-78
2022/03/25 06:59:37;;;;;;;24.52;10.60;;;;;;;;;;5054537;28;20037;-79
2022/03/25 07:02:03;;;;;;;22.45;9.98;;;;;;;;;;5053308;28;20029;-79
2022/03/25 07:04:29;;;;;;;22.20;9.65;;;;;;;;;;5056577;28;20029;-80
2022/03/25 07:06:56;;;;;;;19.88;7.82;;;;;;;;;;5050495;28;20064;-79
2022/03/25 07:09:22;;;;;;;19.90;9.40;;;;;;;;;;5061331;28;20053;-79
2022/03/25 07:11:48;;;;;;;22.08;8.13;;;2.60;99.90;;;;;;5059795;28;20025;-79
2022/03/25 07:14:14;;;;;;;17.50;7.22;;;;;;;;;;5062391;28;20104;-78
2022/03/25 07:16:42;;;;;;;14.60;6.75;;;;;;;;;;5068389;28;20035;-79
2022/03/25 07:19:09;;;;;;;21.77;8.52;;;;;;;;;;5068973;28;20042;-78
2022/03/25 07:21:35;;;;;;;25.50;9.02;;;;;;;;;;5063412;28;20037;-78
2022/03/25 07:24:01;;;;;;;18.88;8.40;;;;;;;;;;5053807;28;20033;-79
2022/03/25 07:26:27;;;;;;;19.17;7.55;;;;;;;;;;5053438;28;20105;-79
2022/03/25 07:28:53;;;;;;;17.98;6.90;;;;;;;;;;5057614;28;20070;-79
2022/03/25 07:31:19;;;;;;;18.58;8.23;;;;;;;;;;5053625;28;20071;-80
2022/03/25 07:33:45;;;;;;;24.08;9.55;;;;;;;;;;5059178;28;20084;-79
2022/03/25 07:36:11;;;;;;;22.33;9.15;;;;;;;;;;5061139;28;20021;-79
2022/03/25 07:38:37;;;;;;;17.33;8.98;;;;;;;;;;5052518;28;20025;-79
2022/03/25 07:41:03;;;;;;;18.45;7.75;;;;;;;;;;5051623;28;20017;-78
2022/03/25 07:43:30;;;;;;;16.75;8.85;;;;;;;;;;5048582;28;20037;-79
2022/03/25 07:45:56;;;;;;;19.00;8.63;;;;;;;;;;5061221;28;20052;-79
2022/03/25 07:48:22;;;;;;;25.88;9.30;;;;;;;;;;5052348;28;20040;-80
2022/03/25 07:50:48;;;;;;;21.23;7.60;;;;;;;;;;5055091;28;20035;-80
2022/03/25 07:53:14;;;;;;;24.10;8.95;;;;;;;;;;5051093;28;20501;-81
2022/03/25 07:55:40;;;;;;;16.67;8.23;;;;;;;;;;5050525;28;20049;-81
2022/03/25 07:58:06;;;;;;;21.63;8.05;;;;;;;;;;5047799;28;20080;-79
2022/03/25 08:00:32;;;;;;;17.67;7.28;;;;;;;;;;5054385;28;20029;-79
2022/03/25 08:02:58;;;;;;;21.65;8.40;;;;;;;;;;5047608;28;20029;-79
2022/03/25 08:05:24;;;;;;;22.52;9.30;;;;;;;;;;5047550;28;20060;-78
2022/03/25 08:07:54;;;;;;;21.83;8.98;;;6.10;99.90;;;;;;5049567;28;20083;-79
2022/03/25 08:10:25;;;;;;;20.88;8.68;;;;;;;;;;5056771;28;20067;-78
2022/03/25 08:12:51;;;;;;;18.50;7.50;;;;;;;;;;5047302;28;20021;-78
2022/03/25 08:15:18;;;;;;;21.80;7.43;;;;;;;;;;5049286;28;20052;-79
2022/03/25 08:17:50;;;;;;;24.52;9.13;;;7.10;99.90;;;;;;5055400;28;20025;-78
2022/03/25 08:20:19;;;;;;;18.45;6.88;;;;;;;;;;5043527;28;20025;-79
2022/03/25 08:22:45;;;;;;;26.25;8.07;;;;;;;;;;5056746;28;20096;-80
2022/03/25 08:28:01;;;;;;;20.30;8.98;;;;;;;;;;5057299;28;20055;-80
2022/03/25 08:30:31;;;;;;;20.35;8.40;;;;;;;;;;5063498;28;20033;-81
2022/03/25 08:32:57;;;;;;;21.73;8.30;;;;;;;;;;5049932;28;20085;-81
2022/03/25 08:35:24;;;;;;;18.75;8.45;;;;;;;;;;5056323;28;20148;-80
2022/03/25 08:37:50;;;;;;;24.35;9.63;;;;;;;;;;5049581;28;20041;-80
2022/03/25 08:40:16;;;;;;;18.38;8.35;;;;;;;;;;5058820;28;20036;-81
2022/03/25 08:42:42;;;;;;;18.40;8.00;;;;;;;;;;5058488;28;20553;-80
2022/03/25 08:45:08;;;;;;;30.50;10.55;;;;;;;;;;5050516;28;20029;-80
2022/03/25 08:47:34;;;;;;;24.17;8.88;;;;;;;;;;5058418;28;20025;-81
2022/03/25 08:50:00;;;;;;;20.13;7.50;;;;;;;;;;5051898;28;20049;-81
2022/03/25 08:52:26;;;;;;;24.65;10.07;;;;;;;;;;5050035;28;20032;-80
2022/03/25 08:54:52;;;;;;;23.42;10.27;;;;;;;;;;5055454;28;20093;-80
2022/03/25 08:57:18;;;;;;;25.23;10.57;;;;;;;;;;5054217;28;20021;-80
2022/03/25 08:59:44;;;;;;;24.55;9.57;;;;;;;;;;5054804;28;20028;-80
2022/03/25 09:02:10;;;;;;;20.90;9.27;;;;;;;;;;5053001;28;20025;-81
2022/03/25 09:04:36;;;;;;;21.23;10.25;;;;;;;;;;5052722;28;20021;-80
2022/03/25 09:07:02;;;;;;;23.27;10.80;;;;;;;;;;5048354;28;20037;-80
2022/03/25 09:09:29;;;;;;;25.88;11.68;;;;;;;;;;5049686;28;20794;-80
2022/03/25 09:11:55;;;;;;;25.83;11.45;;;;;;;;;;5050571;28;20081;-80
2022/03/25 09:14:21;;;;;;;24.83;10.77;;;;;;;;;;5054851;28;20035;-81
2022/03/25 09:16:47;;;;;;;27.10;10.52;;;;;;;;;;5061248;28;20021;-80
2022/03/25 09:19:13;;;;;;;23.00;10.68;;;;;;;;;;5062124;28;20089;-80
2022/03/25 09:21:39;;;;;;;26.02;12.55;;;;;;;;;;5054511;28;20083;-80
2022/03/25 09:24:05;;;;;;;24.83;11.80;;;;;;;;;;5055115;28;20033;-80
2022/03/25 09:26:32;;;;;;;29.90;11.95;;;;;;;;;;5052263;28;20059;-81
2022/03/25 09:28:58;;;;;;;31.52;13.30;;;;;;;;;;5053740;28;20064;-81
2022/03/25 09:31:23;;;;;;;27.30;12.15;;;;;;;;;;5057147;28;20036;-80
2022/03/25 09:33:49;;;;;;;29.98;13.18;;;;;;;;;;5055397;28;20043;-81
2022/03/25 09:36:15;;;;;;;24.83;11.15;;;;;;;;;;5048118;28;20597;-81
2022/03/25 09:38:41;;;;;;;26.80;11.32;;;;;;;;;;5052090;28;20116;-82
2022/03/25 09:41:08;;;;;;;27.08;11.27;;;;;;;;;;5053211;28;20033;-80
2022/03/25 09:43:34;;;;;;;28.35;12.65;;;;;;;;;;5051623;28;20048;-80
2022/03/25 09:46:01;;;;;;;25.58;10.68;;;;;;;;;;5053170;28;20068;-80
2022/03/25 09:48:27;;;;;;;29.23;12.40;;;;;;;;;;5059335;28;20029;-80
2022/03/25 09:50:53;;;;;;;24.50;11.27;;;;;;;;;;5058151;28;20056;-81
2022/03/25 09:53:19;;;;;;;25.02;11.25;;;;;;;;;;5052661;28;20089;-81
2022/03/25 09:55:46;;;;;;;23.23;11.05;;;;;;;;;;5048640;28;20048;-81
2022/03/25 09:58:18;;;;;;;30.60;13.18;;;;;;;;;;5054112;28;20049;-80
2022/03/25 10:00:48;;;;;;;27.15;10.88;;;;;;;;;;5051596;28;20059;-80
2022/03/25 10:03:24;;;;;;;26.27;11.73;;;16.30;63.10;;;;;;5057867;28;20036;-80
2022/03/25 10:05:54;;;;;;;24.80;11.25;;;;;;;;;;5045405;28;20033;-80
2022/03/25 10:08:30;;;;;;;31.25;12.02;;;;;;;;;;5052021;28;20491;-80
2022/03/25 10:10:56;;;;;;;23.40;11.55;;;;;;;;;;5059014;28;20128;-80
2022/03/25 10:13:22;;;;;;;25.48;10.45;;;;;;;;;;5046265;28;20087;-81
2022/03/25 10:15:48;;;;;;;26.48;11.88;;;;;;;;;;5053704;28;20021;-80
2022/03/25 10:18:14;;;;;;;26.58;11.52;;;;;;;;;;5055512;28;20032;-80
2022/03/25 10:20:41;;;;;;;26.33;10.98;;;;;;;;;;5045884;28;20424;-81
2022/03/25 10:23:09;;;;;;;26.10;10.82;;;;;;;;;;5050618;28;20033;-81
2022/03/25 10:25:46;;;;;;;20.77;9.80;;;;;;;;;;5046849;28;20032;-81
2022/03/25 10:28:24;;;;;;;24.00;10.27;;;;;;;;;;5046692;28;20555;-81
2022/03/25 10:30:52;;;;;;;26.70;10.98;;;;;;;;;;5050299;28;20124;-80
2022/03/25 10:33:29;;;;;;;24.73;10.35;;;;;;;;;;5048094;28;20432;-81
2022/03/25 10:35:59;;;;;;;27.73;12.20;;;;;;;;;;5056133;28;20048;-81
2022/03/25 10:38:25;;;;;;;25.27;10.40;;;;;;;;;;5049264;28;20017;-80
2022/03/25 10:40:56;;;;;;;21.45;9.75;;;;;;;;;;5050880;28;20029;-80
2022/03/25 10:43:22;;;;;;;27.90;9.75;;;;;;;;;;5047139;28;20029;-81
2022/03/25 10:45:48;;;;;;;22.77;10.55;;;;;;;;;;5050862;28;20022;-80
2022/03/25 10:48:16;;;;;;;24.95;10.52;;;;;;;;;;5056718;28;20026;-80
2022/03/25 10:50:55;;;;;;;23.83;10.73;;;;;;;;;;5054296;28;20132;-81
2022/03/25 10:53:26;;;;;;;20.67;9.82;;;;;;;;;;5046511;28;20546;-80
2022/03/25 10:55:56;;;;;;;26.83;10.27;;;;;;;;;;5048872;28;20068;-81
2022/03/25 10:58:22;;;;;;;24.73;10.32;;;;;;;;;;5051680;28;20021;-80
2022/03/25 11:00:49;;;;;;;25.10;11.05;;;;;;;;;;5048136;28;20021;-80
2022/03/25 11:03:16;;;;;;;24.60;11.15;;;;;;;;;;5053723;28;20064;-81
2022/03/25 11:05:42;;;;;;;22.70;10.82;;;;;;;;;;5055294;28;20032;-81
2022/03/25 11:08:08;;;;;;;32.05;11.50;;;17.40;56.40;;;;;;5058350;28;20028;-80
2022/03/25 11:10:35;;;;;;;27.42;10.18;;;17.60;56.20;;;;;;5055069;28;20186;-82
2022/03/25 11:13:02;;;;;;;21.83;10.50;;;;;;;;;;5053615;28;20082;-81
2022/03/25 11:15:30;;;;;;;26.20;11.23;;;;;;;;;;5050824;28;20049;-81
2022/03/25 11:17:56;;;;;;;27.38;11.55;;;;;;;;;;5048012;28;20661;-80
2022/03/25 11:20:24;;;;;;;27.75;11.45;;;;;;;;;;5055806;28;20036;-80
2022/03/25 11:22:52;;;;;;;28.63;12.27;;;;;;;;;;5042319;28;20029;-80
2022/03/25 11:25:21;;;;;;;21.48;10.40;;;;;;;;;;5050259;28;20025;-81
2022/03/25 11:27:50;;;;;;;28.30;11.25;;;;;;;;;;5050976;28;20051;-81
2022/03/25 11:30:16;;;;;;;24.05;9.20;;;;;;;;;;5053775;28;20141;-81
2022/03/25 11:32:48;;;;;;;22.48;10.32;;;;;;;;;;5050894;28;20026;-80
2022/03/25 11:35:20;;;;;;;24.73;9.98;;;;;;;;;;5044056;28;20044;-81
2022/03/25 11:37:46;;;;;;;23.23;11.50;;;;;;;;;;5051646;28;20035;-80
2022/03/25 11:40:15;;;;;;;23.17;10.77;;;18.20;49.70;;;;;;5048725;28;20049;-81
2022/03/25 11:42:42;;;;;;;25.45;11.68;;;;;;;;;;5050256;28;20040;-81
2022/03/25 11:45:37;;;;;;;25.75;10.23;;;;;;;;;;5057729;28;20113;-81
2022/03/25 11:48:07;;;;;;;27.88;10.88;;;;;;;;;;5058113;28;20082;-81
2022/03/25 11:50:37;;;;;;;26.83;11.25;;;;;;;;;;5056252;28;20041;-80
2022/03/25 11:53:12;;;;;;;23.33;10.63;;;;;;;;;;5052823;28;20048;-80
2022/03/25 11:56:01;;;;;;;23.00;9.80;;;;;;;;;;5047067;28;20118;-80
2022/03/25 11:58:28;;;;;;;23.27;10.88;;;;;;;;;;5049306;28;20487;-80
2022/03/25 12:00:55;;;;;;;22.70;10.70;;;;;;;;;;5052773;28;20030;-80
2022/03/25 12:03:40;;;;;;;24.67;10.43;;;;;;;;;;5054324;28;20045;-83
2022/03/25 12:06:06;;;;;;;21.63;10.85;;;;;;;;;;5052710;28;20028;-81
2022/03/25 12:08:32;;;;;;;22.17;8.88;;;;;;;;;;5055590;28;20039;-81
2022/03/25 12:11:00;;;;;;;24.88;10.45;;;;;;;;;;5054338;28;20068;-81
2022/03/25 12:13:44;;;;;;;21.85;9.77;;;;;;;;;;5056432;28;20045;-81
2022/03/25 12:16:10;;;;;;;23.00;9.90;;;;;;;;;;5050604;28;20078;-81
2022/03/25 12:18:46;;;;;;;24.40;9.88;;;;;;;;;;5057804;28;20040;-82
2022/03/25 12:21:12;;;;;;;23.48;9.45;;;;;;;;;;5049234;28;20029;-81
2022/03/25 12:23:38;;;;;;;22.92;10.20;;;;;;;;;;5061675;28;20052;-80
2022/03/25 12:26:04;;;;;;;21.52;9.57;;;;;;;;;;5055525;28;20025;-80
2022/03/25 12:28:31;;;;;;;24.13;9.73;;;;;;;;;;5049321;28;20025;-80
2022/03/25 12:31:02;;;;;;;23.15;11.07;;;;;;;;;;5050244;28;20105;-80
2022/03/25 12:33:28;;;;;;;24.33;10.27;;;;;;;;;;5054268;28;20099;-81
2022/03/25 12:35:55;;;;;;;22.60;9.45;;;;;;;;;;5050998;28;20037;-80
2022/03/25 12:38:22;;;;;;;21.42;9.57;;;;;;;;;;5051398;28;20513;-80
2022/03/25 12:40:49;;;;;;;22.15;10.23;;;;;;;;;;5055968;28;20159;-81
2022/03/25 12:43:15;;;;;;;22.30;8.73;;;;;;;;;;5048913;28;20389;-79
2022/03/25 12:45:44;;;;;;;19.95;8.93;;;;;;;;;;5055677;28;20376;-81
2022/03/25 12:48:11;;;;;;;21.30;9.82;;;;;;;;;;5045999;28;20581;-80
2022/03/25 12:50:38;;;;;;;17.58;8.95;;;;;;;;;;5054857;28;20067;-78
2022/03/25 12:53:05;;;;;;;24.83;11.07;;;;;;;;;;5049680;28;20029;-80
2022/03/25 12:55:32;;;;;;;21.02;9.82;;;;;;;;;;5053056;28;20024;-79
2022/03/25 12:58:01;;;;;;;26.65;10.43;;;;;;;;;;5048250;28;20029;-80
2022/03/25 13:00:32;;;;;;;22.95;10.30;;;;;;;;;;5056430;28;20063;-80
2022/03/25 13:02:58;;;;;;;27.58;10.95;;;;;;;;;;5044791;28;20017;-80
2022/03/25 13:05:25;;;;;;;23.75;10.65;;;;;;;;;;5051193;28;20034;-79
2022/03/25 13:07:53;;;;;;;25.02;10.75;;;;;;;;;;5046785;28;20033;-79
2022/03/25 13:10:19;;;;;;;28.90;11.27;;;;;;;;;;5048693;28;20045;-80
2022/03/25 13:12:51;;;;;;;24.40;11.13;;;;;;;;;;5040383;28;20749;-80
2022/03/25 13:15:17;;;;;;;24.48;10.90;;;;;;;;;;5045496;28;20025;-79
2022/03/25 13:17:45;;;;;;;24.77;10.38;;;;;;;;;;5044183;28;20036;-80
2022/03/25 13:20:20;;;;;;;27.63;11.70;;;17.90;50.40;;;;;;5037215;28;20148;-81
2022/03/25 13:23:01;;;;;;;23.35;9.63;;;;;;;;;;5039659;28;20119;-79
2022/03/25 13:25:31;;;;;;;29.35;10.55;;;;;;;;;;5044995;28;20029;-80
2022/03/25 13:27:58;;;;;;;20.13;9.93;;;;;;;;;;5056464;28;20029;-81
2022/03/25 13:30:26;;;;;;;23.10;10.98;;;;;;;;;;5054971;28;20052;-82
2022/03/25 13:33:24;;;;;;;22.55;9.90;;;;;;;;;;5046161;28;20037;-81
2022/03/25 13:35:51;;;;;;;23.08;9.10;;;;;;;;;;5047749;28;20050;-81
2022/03/25 13:38:18;;;;;;;21.95;10.35;;;;;;;;;;5048189;28;20021;-81
2022/03/25 13:40:46;;;;;;;20.50;9.88;;;18.80;52.50;;;;;;5046015;28;20051;-80
2022/03/25 13:43:13;;;;;;;23.95;10.20;;;;;;;;;;5054318;28;20488;-81
2022/03/25 13:45:40;;;;;;;24.77;10.45;;;;;;;;;;5042656;28;20048;-80
2022/03/25 13:48:14;;;;;;;22.75;10.18;;;;;;;;;;5049535;28;20025;-80
2022/03/25 13:50:48;;;;;;;29.17;11.98;;;;;;;;;;5039590;28;20041;-80
2022/03/25 13:53:17;;;;;;;28.23;13.05;;;;;;;;;;5040842;28;20022;-79
2022/03/25 13:55:43;;;;;;;28.35;11.05;;;;;;;;;;5042845;28;20130;-79
2022/03/25 13:58:14;;;;;;;24.38;10.98;;;;;;;;;;5048836;28;20037;-81
2022/03/25 14:00:41;;;;;;;30.33;12.27;;;;;;;;;;5045088;28;20168;-79
2022/03/25 14:03:07;;;;;;;26.67;11.32;;;;;;;;;;5036805;28;20021;-79
2022/03/25 14:05:37;;;;;;;25.85;11.18;;;;;;;;;;5045073;28;20405;-80
2022/03/25 14:08:04;;;;;;;25.00;9.85;;;;;;;;;;5034733;28;20053;-79
2022/03/25 14:10:30;;;;;;;23.20;9.32;;;;;;;;;;5035656;28;20043;-78
2022/03/25 14:12:57;;;;;;;25.98;10.48;;;;;;;;;;5039659;28;20079;-79
2022/03/25 14:15:26;;;;;;;20.30;9.30;;;;;;;;;;5041364;28;20036;-79
2022/03/25 14:17:52;;;;;;;34.97;12.43;;;;;;;;;;5044422;28;20077;-78
2022/03/25 14:20:19;;;;;;;26.48;10.43;;;;;;;;;;5040037;28;20370;-79
2022/03/25 14:22:46;;;;;;;24.00;10.65;;;;;;;;;;5035671;28;20033;-77
2022/03/25 14:25:13;;;;;;;22.63;10.68;;;;;;;;;;5029932;28;20128;-77
2022/03/25 14:27:40;;;;;;;28.10;9.30;;;;;;;;;;5033299;28;20088;-78